Aviation Digital Data Service (ADDS)

Output produced by TAFs form (0102 UTC 22 September 2017)
found at http://www.aviationweather.gov/adds/tafs/
 
METAR text: ZBAA 220030Z 31006G12MPS 280V340 CAVOK 23/04 Q1010 NOSIG
Conditions at: ZBAA (BEIJING/PEKING , CN) observed 0030 UTC 22 September 2017
Temperature: 23.0°C (73°F)
Dewpoint: 4.0°C (39°F) [RH = 29%]
Pressure (altimeter): 29.82 inches Hg (1010.0 mb)
Winds: from the NW (310 degrees) at 14 MPH (12 knots; 6.2 m/s)
gusting to 26 MPH (23 knots; 12.0 m/s)
Visibility: 6 or more miles (10+ km)
Ceiling: ceiling and visibility are OK
Clouds: unknown
Weather: no significant weather observed at this time

Forecast for: ZBAA (BEIJING/PEKING , CN)
Text: TAF ZBAA 212120Z 2200/2224 32008G14MPS CAVOK TX28/2207Z TN14/2221Z
Forecast period: 0000 UTC 22 September 2017 to 0000 UTC 23 September 2017
Forecast type: FROM: standard forecast or significant change
Winds: from the NW (320 degrees) at 18 MPH (16 knots; 8.3 m/s)
gusting to 31 MPH (27 knots; 14.0 m/s)
Visibility: 6 or more miles (10+ km)
Clouds: not forecast
Weather: no significant weather forecast for this period